KCRG/CRG METAR and TAF weather

Enter ICAO airport designator
Station Type Date Time Source
KCRG METAR 2019/08/22 02:53 UTC NOAA

KCRG 220253Z AUTO 18004KT 10SM CLR 27/24 A3010 RMK AO2 SLP192 T02720244 51009


Station Type Date Time Source
KCRG Decoded METAR 2019/08/22 02:53 UTC NOAA

Station name not available
Aug 21, 2019 - 10:53 PM EDT / 2019.08.22 0253 UTC
Wind: from the S (180 degrees) at 5 MPH (4 KT):0
Visibility: 10 mile(s):0
Sky conditions: clear
Temperature: 81.0 F (27.2 C)
Dew Point: 75.9 F (24.4 C)
Relative Humidity: 84%
Pressure (altimeter): 30.1 in. Hg (1019 hPa)
Pressure tendency: 0.03 inches (0.9 hPa) higher than three hours ago
ob: KCRG 220253Z AUTO 18004KT 10SM CLR 27/24 A3010 RMK AO2 SLP192 T02720244 51009
cycle: 3

Station Type Date Time Source
KCRG TAF 2019/08/21 18:30 UTC NOAA

TAF KCRG 211728Z 2118/2218 12008KT P6SM SCT040 BKN250
FM212300 16005KT P6SM BKN250
FM220600 20003KT P6SM SCT250

Example: see airport list